createdAt,value
2022-12-17T00:01:08.466Z,82.06
2022-12-17T00:03:25.640Z,81.78
2022-12-17T00:05:42.772Z,81.59
2022-12-17T00:08:00.093Z,81.44
2022-12-17T00:10:17.159Z,81.65
2022-12-17T00:12:34.452Z,81.63
2022-12-17T00:14:51.490Z,81.88
2022-12-17T00:17:09.073Z,82.22
2022-12-17T00:19:26.868Z,81.85
2022-12-17T00:21:44.203Z,81.92
2022-12-17T00:24:01.800Z,82.09
2022-12-17T00:26:18.877Z,81.56
2022-12-17T00:28:35.842Z,81.62
2022-12-17T00:30:54.138Z,81.51
2022-12-17T00:33:11.043Z,81.18
2022-12-17T00:35:28.087Z,81.43
2022-12-17T00:37:45.392Z,81.04
2022-12-17T00:40:02.426Z,81.26
2022-12-17T00:42:20.529Z,81.21
2022-12-17T00:44:37.498Z,80.92
2022-12-17T00:46:54.549Z,81.34
2022-12-17T00:49:13.050Z,80.81
2022-12-17T00:51:31.350Z,80.77
2022-12-17T00:53:49.295Z,81.19
2022-12-17T00:56:06.239Z,80.36
2022-12-17T00:58:23.198Z,80.58
2022-12-17T01:00:40.572Z,80.01
2022-12-17T01:02:57.738Z,80.12
2022-12-17T01:05:15.062Z,80.33
2022-12-17T01:07:32.102Z,80.50
2022-12-17T01:09:48.997Z,80.44
2022-12-17T01:12:07.042Z,80.25
2022-12-17T01:14:24.295Z,80.64
2022-12-17T01:16:41.251Z,80.92
2022-12-17T01:18:58.342Z,80.52
2022-12-17T01:21:15.315Z,80.80
2022-12-17T01:23:32.337Z,80.86
2022-12-17T01:25:49.588Z,81.25
2022-12-17T01:28:06.829Z,81.54
2022-12-17T01:30:23.838Z,80.91
2022-12-17T01:32:40.825Z,81.40
2022-12-17T01:34:58.851Z,81.05
2022-12-17T01:37:16.059Z,81.53
2022-12-17T01:39:34.251Z,82.58
2022-12-17T01:41:51.308Z,83.12
2022-12-17T01:44:08.337Z,83.30
2022-12-17T01:46:25.306Z,84.02
2022-12-17T01:48:43.571Z,84.12
2022-12-17T01:51:00.833Z,83.76
2022-12-17T01:53:18.859Z,84.12
2022-12-17T01:55:36.135Z,84.50
2022-12-17T01:57:53.160Z,84.16
2022-12-17T02:00:10.268Z,84.19
2022-12-17T02:02:27.411Z,84.24
2022-12-17T02:04:44.702Z,84.32
2022-12-17T02:07:01.767Z,84.80
2022-12-17T02:09:19.102Z,85.00
2022-12-17T02:11:36.316Z,84.53
2022-12-17T02:13:53.350Z,84.34
2022-12-17T02:16:10.265Z,84.76
2022-12-17T02:18:27.341Z,84.47
2022-12-17T02:20:44.320Z,84.71
2022-12-17T02:23:01.541Z,84.54
2022-12-17T02:25:18.568Z,84.85
2022-12-17T02:27:35.803Z,85.20
2022-12-17T02:29:52.712Z,84.61
2022-12-17T02:32:09.599Z,84.65
2022-12-17T02:34:26.533Z,84.33
2022-12-17T02:36:43.567Z,84.47
2022-12-17T02:39:00.590Z,84.22
2022-12-17T02:41:17.890Z,83.99
2022-12-17T02:43:35.128Z,84.07
2022-12-17T02:45:52.572Z,84.03
2022-12-17T02:48:09.810Z,83.65
2022-12-17T02:50:26.772Z,84.05
2022-12-17T02:52:44.024Z,83.64
2022-12-17T02:55:01.346Z,83.67
2022-12-17T02:57:18.315Z,83.67
2022-12-17T02:59:35.567Z,83.21
2022-12-17T03:01:52.638Z,83.20
2022-12-17T03:04:10.639Z,83.20
2022-12-17T03:06:27.542Z,82.22
2022-12-17T03:08:44.854Z,82.38
2022-12-17T03:11:02.063Z,82.51
2022-12-17T03:13:19.016Z,81.76
2022-12-17T03:15:36.018Z,82.66
2022-12-17T03:17:52.955Z,81.78
2022-12-17T03:20:10.180Z,81.46
2022-12-17T03:22:28.214Z,82.62
2022-12-17T03:24:45.211Z,82.20
2022-12-17T03:27:03.107Z,82.24
2022-12-17T03:29:20.051Z,82.18
2022-12-17T03:31:37.169Z,81.72
2022-12-17T03:33:54.484Z,82.46
2022-12-17T03:36:11.423Z,82.03
2022-12-17T03:38:28.497Z,82.00
2022-12-17T03:40:45.452Z,82.56
2022-12-17T03:43:02.473Z,82.07
2022-12-17T03:45:19.584Z,81.61
2022-12-17T03:47:36.559Z,81.51
2022-12-17T03:49:53.535Z,80.30
2022-12-17T03:52:10.513Z,79.93
2022-12-17T03:54:27.493Z,80.04
2022-12-17T03:56:44.474Z,80.18
2022-12-17T03:59:01.760Z,79.56
2022-12-17T04:01:18.886Z,80.32
2022-12-17T04:03:36.306Z,79.35
2022-12-17T04:05:53.567Z,78.79
2022-12-17T04:08:10.629Z,78.99
2022-12-17T04:10:28.715Z,78.81
2022-12-17T04:12:47.094Z,78.25
2022-12-17T04:15:04.102Z,78.65
2022-12-17T04:17:21.168Z,78.66
2022-12-17T04:19:39.424Z,78.18
2022-12-17T04:21:56.650Z,77.77
2022-12-17T04:24:13.856Z,77.04
2022-12-17T04:26:31.185Z,77.90
2022-12-17T04:28:48.431Z,77.62
2022-12-17T04:31:05.438Z,78.27
2022-12-17T04:33:22.481Z,77.98
2022-12-17T04:35:39.554Z,77.94
2022-12-17T04:37:56.819Z,77.99
2022-12-17T04:40:14.085Z,78.11
2022-12-17T04:42:31.358Z,78.10
2022-12-17T04:44:48.664Z,77.84
2022-12-17T04:47:07.004Z,78.16
2022-12-17T04:49:24.329Z,78.44
2022-12-17T04:51:42.308Z,77.70
2022-12-17T04:53:59.611Z,77.09
2022-12-17T04:56:16.496Z,77.43
2022-12-17T04:58:33.588Z,77.33
2022-12-17T05:00:50.833Z,77.34
2022-12-17T05:03:07.831Z,77.24
2022-12-17T05:05:25.189Z,77.09
2022-12-17T05:07:42.564Z,76.75
2022-12-17T05:09:59.878Z,76.31
2022-12-17T05:12:17.213Z,77.04
2022-12-17T05:14:34.144Z,77.17
2022-12-17T05:16:51.189Z,76.94
2022-12-17T05:19:08.171Z,76.62
2022-12-17T05:21:28.108Z,76.81
2022-12-17T05:23:50.146Z,77.06
2022-12-17T05:26:07.388Z,77.22
2022-12-17T05:28:24.419Z,77.20
2022-12-17T05:30:41.451Z,77.27
2022-12-17T05:32:59.707Z,78.10
2022-12-17T05:35:16.977Z,78.44
2022-12-17T05:37:33.968Z,76.87
2022-12-17T05:39:52.233Z,76.00
2022-12-17T05:42:09.201Z,76.96
2022-12-17T05:44:26.250Z,76.35
2022-12-17T05:46:43.332Z,76.14
2022-12-17T05:49:00.263Z,76.07
2022-12-17T05:51:17.198Z,76.04
2022-12-17T05:53:34.801Z,76.13
2022-12-17T05:55:53.372Z,75.95
2022-12-17T05:58:11.197Z,75.80
2022-12-17T06:00:29.267Z,76.16
2022-12-17T06:02:46.441Z,76.97
2022-12-17T06:05:03.533Z,76.86
2022-12-17T06:07:20.506Z,76.61
2022-12-17T06:09:38.807Z,75.83
2022-12-17T06:12:01.001Z,76.34
2022-12-17T06:14:19.748Z,76.27
2022-12-17T06:16:37.118Z,76.25
2022-12-17T06:18:54.416Z,76.33
2022-12-17T06:21:12.490Z,75.79
2022-12-17T06:23:29.521Z,75.83
2022-12-17T06:25:46.597Z,75.53
2022-12-17T06:28:03.912Z,75.83
2022-12-17T06:30:20.971Z,76.23
2022-12-17T06:32:38.024Z,76.84
2022-12-17T06:34:55.407Z,76.82
2022-12-17T06:37:12.321Z,76.79
2022-12-17T06:39:30.567Z,76.88
2022-12-17T06:41:48.875Z,76.75
2022-12-17T06:44:06.055Z,76.72
2022-12-17T06:46:23.168Z,76.73
2022-12-17T06:48:40.295Z,76.50
2022-12-17T06:50:57.597Z,76.79
2022-12-17T06:53:14.673Z,77.29
2022-12-17T06:55:32.586Z,76.58
2022-12-17T06:57:50.640Z,76.13
2022-12-17T07:00:07.732Z,76.64
2022-12-17T07:02:25.229Z,76.87
2022-12-17T07:04:42.351Z,76.77
2022-12-17T07:07:00.459Z,76.87
2022-12-17T07:09:17.549Z,76.92
2022-12-17T07:11:34.712Z,76.53
2022-12-17T07:13:52.059Z,76.78
2022-12-17T07:16:09.189Z,76.71
2022-12-17T07:18:27.322Z,76.19
2022-12-17T07:20:44.676Z,76.31
2022-12-17T07:23:01.902Z,76.19
2022-12-17T07:25:19.741Z,76.61
2022-12-17T07:27:37.110Z,76.80
2022-12-17T07:29:54.463Z,76.28
2022-12-17T07:32:11.411Z,76.68
2022-12-17T07:34:28.661Z,76.81
2022-12-17T07:36:45.588Z,76.90
2022-12-17T07:39:02.715Z,76.59
2022-12-17T07:41:20.100Z,76.57
2022-12-17T07:43:38.386Z,76.68
2022-12-17T07:45:56.086Z,76.81
2022-12-17T07:48:13.074Z,76.90
2022-12-17T07:50:30.110Z,76.88
2022-12-17T07:52:47.176Z,76.53
2022-12-17T07:55:04.172Z,76.79
2022-12-17T07:57:22.196Z,77.25
2022-12-17T07:59:39.236Z,77.06
2022-12-17T08:01:56.643Z,77.17
2022-12-17T08:04:13.906Z,77.36
2022-12-17T08:06:31.219Z,77.43
2022-12-17T08:08:48.267Z,77.52
2022-12-17T08:11:05.277Z,77.73
2022-12-17T08:13:22.308Z,77.15
2022-12-17T08:15:39.385Z,77.56
2022-12-17T08:17:56.278Z,77.38
2022-12-17T08:20:13.307Z,77.08
2022-12-17T08:22:31.593Z,77.42
2022-12-17T08:24:48.894Z,77.37
2022-12-17T08:27:06.124Z,77.65
2022-12-17T08:29:23.367Z,77.96
2022-12-17T08:31:40.302Z,77.53
2022-12-17T08:33:57.233Z,78.10
2022-12-17T08:36:14.258Z,77.92
2022-12-17T08:38:31.116Z,78.23
2022-12-17T08:40:48.162Z,78.01
2022-12-17T08:43:06.472Z,77.32
2022-12-17T08:45:23.542Z,77.65
2022-12-17T08:47:40.554Z,77.32
2022-12-17T08:49:57.824Z,78.17
2022-12-17T08:52:14.764Z,77.91
2022-12-17T08:54:31.762Z,77.71
2022-12-17T08:56:49.504Z,77.55
2022-12-17T08:59:07.594Z,77.66
2022-12-17T09:01:25.116Z,77.83
2022-12-17T09:03:42.271Z,78.07
2022-12-17T09:05:59.669Z,78.32
2022-12-17T09:08:16.907Z,78.38
2022-12-17T09:10:34.967Z,78.68
2022-12-17T09:12:52.167Z,78.43
2022-12-17T09:15:09.183Z,78.44
2022-12-17T09:17:27.109Z,78.37
2022-12-17T09:19:44.142Z,77.87
2022-12-17T09:22:01.589Z,78.26
2022-12-17T09:24:18.503Z,78.21
2022-12-17T09:26:35.733Z,79.13
2022-12-17T09:28:52.795Z,79.07
2022-12-17T09:31:10.259Z,78.47
2022-12-17T09:33:27.288Z,78.93
2022-12-17T09:35:44.280Z,78.96
2022-12-17T09:38:01.383Z,78.82
2022-12-17T09:40:18.316Z,79.20
2022-12-17T09:42:35.276Z,79.80
2022-12-17T09:44:52.512Z,79.85
2022-12-17T09:47:09.609Z,78.75
2022-12-17T09:49:26.589Z,74.83
2022-12-17T09:51:43.846Z,71.09
2022-12-17T09:54:00.709Z,69.89
2022-12-17T09:56:17.941Z,69.73
2022-12-17T09:58:34.941Z,70.05
2022-12-17T10:00:54.988Z,71.29
2022-12-17T10:03:16.241Z,72.83
2022-12-17T10:05:33.350Z,75.05
2022-12-17T10:07:50.273Z,76.16
2022-12-17T10:10:07.342Z,76.19
2022-12-17T10:12:24.455Z,76.68
2022-12-17T10:14:41.848Z,77.65
2022-12-17T10:16:58.951Z,78.03
2022-12-17T10:19:15.911Z,78.37
2022-12-17T10:21:33.203Z,78.73
2022-12-17T10:23:50.133Z,79.03
2022-12-17T10:26:07.210Z,79.23
2022-12-17T10:28:24.621Z,79.25
2022-12-17T10:30:41.578Z,79.36
2022-12-17T10:32:58.968Z,79.62
2022-12-17T10:35:16.077Z,79.85
2022-12-17T10:37:33.371Z,79.85
2022-12-17T10:39:50.635Z,80.07
2022-12-17T10:42:07.786Z,80.24
2022-12-17T10:44:25.099Z,80.34
2022-12-17T10:46:42.242Z,80.58
2022-12-17T10:48:59.329Z,80.55
2022-12-17T10:51:16.229Z,80.84
2022-12-17T10:53:33.731Z,80.18
2022-12-17T10:55:50.925Z,80.32
2022-12-17T10:58:08.228Z,80.74
2022-12-17T11:00:25.201Z,80.91
2022-12-17T11:02:42.219Z,80.86
2022-12-17T11:04:59.276Z,81.12
2022-12-17T11:07:16.504Z,80.81
2022-12-17T11:09:33.471Z,81.55
2022-12-17T11:11:50.827Z,81.60
2022-12-17T11:14:07.749Z,81.44
2022-12-17T11:16:25.200Z,81.83
2022-12-17T11:18:42.129Z,81.85
2022-12-17T11:20:59.472Z,82.18
2022-12-17T11:23:16.463Z,81.91
2022-12-17T11:25:33.510Z,82.01
2022-12-17T11:27:50.840Z,82.87
2022-12-17T11:30:07.898Z,82.94
2022-12-17T11:32:24.963Z,82.99
2022-12-17T11:34:42.037Z,83.03
2022-12-17T11:36:59.123Z,83.38
2022-12-17T11:39:16.191Z,83.47
2022-12-17T11:41:33.154Z,83.23
2022-12-17T11:43:50.077Z,83.36
2022-12-17T11:46:07.464Z,83.58
2022-12-17T11:48:24.481Z,83.46
2022-12-17T11:50:41.763Z,83.46
2022-12-17T11:52:59.347Z,84.26
2022-12-17T11:55:16.650Z,84.73
2022-12-17T11:57:33.982Z,84.83
2022-12-17T11:59:55.091Z,85.02
2022-12-17T12:02:15.524Z,85.04
2022-12-17T12:04:32.619Z,84.73
2022-12-17T12:06:50.510Z,84.92
2022-12-17T12:09:07.414Z,85.04
2022-12-17T12:11:29.733Z,85.11
2022-12-17T12:13:48.524Z,85.41
2022-12-17T12:16:05.919Z,85.38
2022-12-17T12:18:22.958Z,85.33
2022-12-17T12:20:39.873Z,85.69
2022-12-17T12:22:57.143Z,86.03
2022-12-17T12:25:14.081Z,86.15
2022-12-17T12:27:31.031Z,86.47
2022-12-17T12:29:48.159Z,86.63
2022-12-17T12:32:05.154Z,86.99
2022-12-17T12:34:23.071Z,87.08
2022-12-17T12:36:40.367Z,87.16
2022-12-17T12:38:57.287Z,87.25
2022-12-17T12:41:14.464Z,87.13
2022-12-17T12:43:31.761Z,87.20
2022-12-17T12:45:49.179Z,87.15
2022-12-17T12:48:06.468Z,87.34
2022-12-17T12:50:23.732Z,87.45
2022-12-17T12:52:40.649Z,87.72
2022-12-17T12:54:57.601Z,87.18
2022-12-17T12:57:14.491Z,87.16
2022-12-17T12:59:31.576Z,87.33
2022-12-17T13:01:48.745Z,87.37
2022-12-17T13:04:06.179Z,86.96
2022-12-17T13:06:23.489Z,87.00
2022-12-17T13:08:41.838Z,86.35
2022-12-17T13:10:58.776Z,86.28
2022-12-17T13:13:15.801Z,85.94
2022-12-17T13:15:33.444Z,86.18
2022-12-17T13:17:50.678Z,86.64
2022-12-17T13:20:07.731Z,86.41
2022-12-17T13:22:24.829Z,86.04
2022-12-17T13:24:41.841Z,86.21
2022-12-17T13:26:59.781Z,86.42
2022-12-17T13:29:17.100Z,86.13
2022-12-17T13:31:34.097Z,86.28
2022-12-17T13:33:51.074Z,86.61
2022-12-17T13:36:08.012Z,86.31
2022-12-17T13:38:24.991Z,86.05
2022-12-17T13:40:42.254Z,86.20
2022-12-17T13:42:59.259Z,86.65
2022-12-17T13:45:16.299Z,86.74
2022-12-17T13:47:34.501Z,86.88
2022-12-17T13:50:24.594Z,86.94
2022-12-17T13:52:28.771Z,86.91
2022-12-17T13:54:45.734Z,87.23
2022-12-17T13:57:02.946Z,87.30
2022-12-17T13:59:19.833Z,87.58
2022-12-17T14:01:36.999Z,87.16
2022-12-17T14:04:09.455Z,86.51
2022-12-17T14:06:27.801Z,86.49
2022-12-17T14:08:44.848Z,87.01
2022-12-17T14:11:06.581Z,87.34
2022-12-17T14:13:24.057Z,87.02
2022-12-17T14:15:40.985Z,86.37
2022-12-17T14:17:57.980Z,86.32
2022-12-17T14:20:14.878Z,86.81
2022-12-17T14:22:31.863Z,86.69
2022-12-17T14:24:49.146Z,87.16
2022-12-17T14:27:06.420Z,86.27
2022-12-17T14:29:23.651Z,86.93
2022-12-17T14:31:40.791Z,86.50
2022-12-17T14:33:57.874Z,85.98
2022-12-17T14:36:14.792Z,86.29
2022-12-17T14:38:38.388Z,86.34
2022-12-17T14:40:56.337Z,86.00
2022-12-17T14:43:13.264Z,85.85
2022-12-17T14:45:30.233Z,84.30
2022-12-17T14:47:48.359Z,84.99
2022-12-17T14:50:05.706Z,85.51
2022-12-17T14:52:22.936Z,84.57
2022-12-17T14:54:39.848Z,84.37
2022-12-17T14:56:56.898Z,83.39
2022-12-17T14:59:14.302Z,82.49
2022-12-17T15:01:31.317Z,83.99
2022-12-17T15:03:48.483Z,84.22
2022-12-17T15:06:05.471Z,84.20
2022-12-17T15:08:22.819Z,84.06
2022-12-17T15:10:40.056Z,84.16
2022-12-17T15:12:59.470Z,83.90
2022-12-17T15:15:16.583Z,84.27
2022-12-17T15:17:34.428Z,82.74
2022-12-17T15:19:56.208Z,83.40
2022-12-17T15:22:13.494Z,83.07
2022-12-17T15:24:30.483Z,84.34
2022-12-17T15:26:47.441Z,83.82
2022-12-17T15:29:04.694Z,83.17
2022-12-17T15:31:25.522Z,82.87
2022-12-17T15:33:44.888Z,82.83
2022-12-17T15:36:02.207Z,83.02
2022-12-17T15:38:19.202Z,82.82
2022-12-17T15:40:36.223Z,82.20
2022-12-17T15:42:53.214Z,82.54
2022-12-17T15:45:10.549Z,82.81
2022-12-17T15:47:27.984Z,83.04
2022-12-17T15:49:45.315Z,82.94
2022-12-17T15:52:02.551Z,82.54
2022-12-17T15:54:19.507Z,82.77
2022-12-17T15:56:36.772Z,83.14
2022-12-17T15:58:53.820Z,82.56
2022-12-17T16:01:10.793Z,82.90
2022-12-17T16:03:27.906Z,82.05
2022-12-17T16:05:44.981Z,82.12
2022-12-17T16:08:02.023Z,82.95
2022-12-17T16:10:20.096Z,82.66
2022-12-17T16:12:37.087Z,82.19
2022-12-17T16:14:54.138Z,82.73
2022-12-17T16:17:11.380Z,82.71
2022-12-17T16:19:28.623Z,82.54
2022-12-17T16:21:47.141Z,82.27
2022-12-17T16:24:04.274Z,82.64
2022-12-17T16:26:21.320Z,82.99
2022-12-17T16:28:38.934Z,82.32
2022-12-17T16:30:56.233Z,81.83
2022-12-17T16:33:13.364Z,82.20
2022-12-17T16:35:30.451Z,82.72
2022-12-17T16:37:47.447Z,82.24
2022-12-17T16:40:05.543Z,81.89
2022-12-17T16:42:22.854Z,81.78
2022-12-17T16:44:39.897Z,81.90
2022-12-17T16:46:59.980Z,81.59
2022-12-17T16:49:17.178Z,81.89
2022-12-17T16:51:34.490Z,81.39
2022-12-17T16:53:51.515Z,81.67
2022-12-17T16:56:09.106Z,81.61
2022-12-17T16:58:26.111Z,81.40
2022-12-17T17:00:43.404Z,81.33
2022-12-17T17:03:00.443Z,81.30
2022-12-17T17:05:17.603Z,81.99
2022-12-17T17:07:34.940Z,81.36
2022-12-17T17:09:51.967Z,81.54
2022-12-17T17:12:09.303Z,81.54
2022-12-17T17:14:27.048Z,81.36
2022-12-17T17:16:44.097Z,81.35
2022-12-17T17:19:02.397Z,81.54
2022-12-17T17:21:19.278Z,81.87
2022-12-17T17:23:36.338Z,81.25
2022-12-17T17:25:58.270Z,81.33
2022-12-17T17:28:16.058Z,81.29
2022-12-17T17:30:32.977Z,81.58
2022-12-17T17:32:49.972Z,81.18
2022-12-17T17:35:07.115Z,81.38
2022-12-17T17:37:24.112Z,81.14
2022-12-17T17:39:41.914Z,81.14
2022-12-17T17:41:58.981Z,81.21
2022-12-17T17:44:17.318Z,81.49
2022-12-17T17:46:34.297Z,81.58
2022-12-17T17:48:56.622Z,81.85
2022-12-17T17:51:14.212Z,81.06
2022-12-17T17:53:31.189Z,81.27
2022-12-17T17:55:48.464Z,81.32
2022-12-17T17:58:05.400Z,80.94
2022-12-17T18:00:22.764Z,81.46
2022-12-17T18:02:40.188Z,81.46
2022-12-17T18:04:57.608Z,81.83
2022-12-17T18:07:30.054Z,81.77
2022-12-17T18:09:47.052Z,81.70
2022-12-17T18:12:04.342Z,81.90
2022-12-17T18:14:21.397Z,82.09
2022-12-17T18:16:38.484Z,81.93
2022-12-17T18:18:55.590Z,82.20
2022-12-17T18:21:12.696Z,82.16
2022-12-17T18:23:30.659Z,81.70
2022-12-17T18:25:47.561Z,81.68
2022-12-17T18:28:04.610Z,81.72
2022-12-17T18:30:21.677Z,81.54
2022-12-17T18:32:39.263Z,81.57
2022-12-17T18:34:56.364Z,81.34
2022-12-17T18:37:14.729Z,80.86
2022-12-17T18:39:31.706Z,80.35
2022-12-17T18:41:48.659Z,80.66
2022-12-17T18:44:05.692Z,80.67
2022-12-17T18:46:23.570Z,80.66
2022-12-17T18:48:40.905Z,80.73
2022-12-17T18:51:02.532Z,80.94
2022-12-17T18:53:20.228Z,80.59
2022-12-17T18:55:37.296Z,80.50
2022-12-17T18:57:55.250Z,80.57
2022-12-17T19:00:12.171Z,80.76
2022-12-17T19:02:29.511Z,80.68
2022-12-17T19:04:46.925Z,81.06
2022-12-17T19:07:04.878Z,80.66
2022-12-17T19:09:21.866Z,81.24
2022-12-17T19:11:43.412Z,80.91
2022-12-17T19:14:00.976Z,81.33
2022-12-17T19:16:17.962Z,81.44
2022-12-17T19:18:35.485Z,81.50
2022-12-17T19:20:52.829Z,82.02
2022-12-17T19:23:10.096Z,81.78
2022-12-17T19:25:27.089Z,81.49
2022-12-17T19:27:44.504Z,81.66
2022-12-17T19:30:01.574Z,81.13
2022-12-17T19:32:18.898Z,80.65
2022-12-17T19:34:35.837Z,80.15
2022-12-17T19:36:52.887Z,80.06
2022-12-17T19:39:10.236Z,79.84
2022-12-17T19:41:27.296Z,80.28
2022-12-17T19:43:44.533Z,80.34
2022-12-17T19:46:01.958Z,80.84
2022-12-17T19:48:18.860Z,81.08
2022-12-17T19:50:35.846Z,80.62
2022-12-17T19:52:53.246Z,80.15
2022-12-17T19:55:10.520Z,80.58
2022-12-17T19:57:27.465Z,80.04
2022-12-17T19:59:44.704Z,80.63
2022-12-17T20:02:02.035Z,80.99
2022-12-17T20:04:19.296Z,80.54
2022-12-17T20:06:36.305Z,80.23
2022-12-17T20:08:54.321Z,79.56
2022-12-17T20:11:11.247Z,79.16
2022-12-17T20:13:28.316Z,78.44
2022-12-17T20:15:45.386Z,78.88
2022-12-17T20:18:02.260Z,78.12
2022-12-17T20:20:19.359Z,78.40
2022-12-17T20:22:36.337Z,79.00
2022-12-17T20:24:53.328Z,78.56
2022-12-17T20:27:10.316Z,78.78
2022-12-17T20:29:27.361Z,79.38
2022-12-17T20:31:48.118Z,80.50
2022-12-17T20:34:06.949Z,79.70
2022-12-17T20:36:24.195Z,79.16
2022-12-17T20:38:41.819Z,78.37
2022-12-17T20:40:59.081Z,78.24
2022-12-17T20:43:16.273Z,77.81
2022-12-17T20:45:33.584Z,78.11
2022-12-17T20:47:50.704Z,78.11
2022-12-17T20:50:07.681Z,78.67
2022-12-17T20:52:24.921Z,78.27
2022-12-17T20:54:41.926Z,78.67
2022-12-17T20:56:58.891Z,78.43
2022-12-17T20:59:15.950Z,78.51
2022-12-17T21:01:33.315Z,78.93
2022-12-17T21:03:51.143Z,78.18
2022-12-17T21:06:08.274Z,78.52
2022-12-17T21:08:25.349Z,78.80
2022-12-17T21:10:42.768Z,78.65
2022-12-17T21:13:00.088Z,79.27
2022-12-17T21:15:17.419Z,79.43
2022-12-17T21:17:34.312Z,78.89
2022-12-17T21:19:51.537Z,77.75
2022-12-17T21:22:09.953Z,77.82
2022-12-17T21:24:28.264Z,77.52
2022-12-17T21:26:45.327Z,77.84
2022-12-17T21:29:03.570Z,77.59
2022-12-17T21:31:20.877Z,77.49
2022-12-17T21:33:38.007Z,78.55
2022-12-17T21:35:56.549Z,77.67
2022-12-17T21:38:13.385Z,77.89
2022-12-17T21:40:30.619Z,77.98
2022-12-17T21:42:48.550Z,78.36
2022-12-17T21:45:06.787Z,78.50
2022-12-17T21:47:24.046Z,78.13
2022-12-17T21:49:40.964Z,77.57
2022-12-17T21:51:58.047Z,77.81
2022-12-17T21:54:19.256Z,77.49
2022-12-17T21:56:36.466Z,76.65
2022-12-17T21:58:53.646Z,76.88
2022-12-17T22:01:18.663Z,77.89
2022-12-17T22:03:36.740Z,77.72
2022-12-17T22:05:53.786Z,77.72
2022-12-17T22:08:12.128Z,77.76
2022-12-17T22:10:41.999Z,77.11
2022-12-17T22:13:06.601Z,77.54
2022-12-17T22:15:30.714Z,77.82
2022-12-17T22:17:55.240Z,77.14
2022-12-17T22:20:13.429Z,76.56
2022-12-17T22:22:30.677Z,76.75
2022-12-17T22:24:47.772Z,76.74
2022-12-17T22:27:05.143Z,77.27
2022-12-17T22:29:27.023Z,77.13
2022-12-17T22:31:44.046Z,77.37
2022-12-17T22:35:18.095Z,77.51
2022-12-17T22:39:18.285Z,76.95
2022-12-17T22:41:12.086Z,77.32
2022-12-17T22:44:34.916Z,77.56
2022-12-17T22:44:52.187Z,77.63
2022-12-17T22:47:06.760Z,77.39
2022-12-17T22:49:23.825Z,77.40
2022-12-17T22:51:40.858Z,77.18
2022-12-17T22:54:00.107Z,77.29
2022-12-17T22:56:26.463Z,77.13
2022-12-17T22:58:54.473Z,77.46
2022-12-17T23:01:12.522Z,77.57
2022-12-17T23:03:29.919Z,77.70
2022-12-17T23:05:46.992Z,77.56
2022-12-17T23:08:03.980Z,77.34
2022-12-17T23:10:20.898Z,77.54
2022-12-17T23:12:38.177Z,77.60
2022-12-17T23:14:55.414Z,77.76
2022-12-17T23:17:12.386Z,77.86
2022-12-17T23:19:29.443Z,77.60
2022-12-17T23:21:46.754Z,76.83
2022-12-17T23:24:04.809Z,76.64
2022-12-17T23:26:22.089Z,76.70
2022-12-17T23:28:39.123Z,76.92
2022-12-17T23:30:56.172Z,76.91
2022-12-17T23:33:13.347Z,77.22
2022-12-17T23:35:31.348Z,77.33
2022-12-17T23:37:48.311Z,77.82
2022-12-17T23:40:05.354Z,77.38
2022-12-17T23:42:22.664Z,77.76
2022-12-17T23:44:40.002Z,77.30
2022-12-17T23:46:57.410Z,77.25
2022-12-17T23:49:14.563Z,77.49
2022-12-17T23:51:31.835Z,77.17
2022-12-17T23:53:49.191Z,76.97
2022-12-17T23:56:06.242Z,76.92
2022-12-17T23:58:23.523Z,76.92
